createdAt,value
2023-05-14T00:26:57.946Z,84.98
2023-05-14T00:55:53.209Z,85.69
2023-05-14T01:24:51.605Z,87.75
2023-05-14T01:53:47.314Z,87.85
2023-05-14T02:22:39.148Z,88.45
2023-05-14T02:51:42.126Z,88.59
2023-05-14T03:20:35.795Z,89.31
2023-05-14T03:49:31.081Z,89.48
2023-05-14T04:18:31.961Z,91.41
2023-05-14T04:47:27.842Z,91.76
2023-05-14T05:16:15.965Z,90.55
2023-05-14T05:45:09.146Z,89.81
2023-05-14T06:13:58.576Z,87.7
2023-05-14T06:42:43.032Z,87.01
2023-05-14T07:11:33.648Z,77.41
2023-05-14T07:40:20.714Z,72.19
2023-05-14T08:09:17.281Z,68.38
2023-05-14T08:38:08.240Z,63.08
2023-05-14T09:06:45.120Z,61.86
2023-05-14T09:35:51.456Z,55.15
2023-05-14T10:04:17.274Z,57.9
2023-05-14T10:33:16.203Z,54.34
2023-05-14T11:01:38.818Z,53.42
2023-05-14T11:30:23.700Z,51.73
2023-05-14T11:59:03.670Z,49.4
2023-05-14T12:27:48.994Z,49.3
2023-05-14T12:56:46.749Z,47.18
2023-05-14T13:25:30.489Z,45.05
2023-05-14T13:53:58.910Z,46.47
2023-05-14T14:22:48.567Z,50.55
2023-05-14T14:51:44.406Z,47.46
2023-05-14T15:20:38.884Z,46.47
2023-05-14T15:49:22.827Z,46
2023-05-14T16:17:53.868Z,43.95
2023-05-14T16:46:20.586Z,46.15
2023-05-14T17:14:52.922Z,45.21
2023-05-14T17:43:19.508Z,48.61
2023-05-14T18:11:46.432Z,51.72
2023-05-14T18:40:19.297Z,56.73
2023-05-14T19:08:33.778Z,63.34
2023-05-14T19:36:59.872Z,68.54
2023-05-14T20:05:21.705Z,71.3
2023-05-14T20:33:44.343Z,74.8
2023-05-14T21:02:03.110Z,75.32
2023-05-14T21:30:31.381Z,77.39
2023-05-14T21:59:06.756Z,79.64
2023-05-14T22:27:49.425Z,82.06
2023-05-14T22:56:23.348Z,82.2
2023-05-14T23:25:05.711Z,81.49
2023-05-14T23:53:53.556Z,83.64
